Time;durP1;ratioP1;P1;durP2;ratioP2;P2;SDS_P1;SDS_P2;PMS_P1;PMS_P2;Temp;Humidity;BMP_temperature;BMP_pressure;BME280_temperature;BME280_humidity;BME280_pressure;Samples;Min_cycle;Max_cycle;Signal;HPM_P1;HPM_P2
2021/04/14 00:01:07;;;;;;;13.43;12.03;;;;;;;;;;4870374;28;20243;-82
2021/04/14 00:03:35;;;;;;;13.73;12.33;;;;;;;;;;4870147;29;20239;-81
2021/04/14 00:06:05;;;;;;;14.53;12.30;;;;;;;;;;4871708;28;20227;-80
2021/04/14 00:08:32;;;;;;;14.47;12.90;;;;;;;;;;4874254;28;20239;-81
2021/04/14 00:11:00;;;;;;;14.30;12.80;;;;;;;;;;4876752;28;20239;-82
2021/04/14 00:13:42;;;;;;;14.40;12.23;;;;;;;;;;4875392;28;20733;-79
2021/04/14 00:16:20;;;;;;;14.57;12.47;;;;;;;;;;4875351;28;20228;-79
2021/04/14 00:18:48;;;;;;;14.53;12.83;;;;;;;;;;4886741;28;20243;-80
2021/04/14 00:21:18;;;;;;;14.00;12.60;;;;;;;;;;4896691;28;20240;-80
2021/04/14 00:23:57;;;;;;;13.60;12.23;;;;;;;;;;4889861;28;20224;-82
2021/04/14 00:26:24;;;;;;;13.90;12.50;;;;;;;;;;4877584;28;20748;-83
2021/04/14 00:28:53;;;;;;;17.23;13.47;;;;;;;;;;4888395;28;20235;-80
2021/04/14 00:31:34;;;;;;;14.13;12.73;;;;;;;;;;4884187;28;20227;-83
2021/04/14 00:34:07;;;;;;;14.87;12.77;;;;;;;;;;4874808;28;20233;-78
2021/04/14 00:36:35;;;;;;;13.77;12.37;;;;;;;;;;4902765;28;20231;-79
2021/04/14 00:39:06;;;;;;;14.13;12.70;;;;;;;;;;4882208;28;20246;-80
2021/04/14 00:41:34;;;;;;;15.27;12.60;;;;;;;;;;4903228;28;20313;-78
2021/04/14 00:44:03;;;;;;;14.37;12.87;;;;;;;;;;4873363;28;20224;-83
2021/04/14 00:46:31;;;;;;;14.10;12.33;;;;;;;;;;4876495;28;20242;-80
2021/04/14 00:48:59;;;;;;;14.70;12.23;;;;;;;;;;4854499;28;20234;-81
2021/04/14 00:51:27;;;;;;;14.57;13.00;;;;;;;;;;4875822;29;20229;-82
2021/04/14 00:53:56;;;;;;;15.00;13.40;;;;;;;;;;4889935;28;20236;-79
2021/04/14 00:56:23;;;;;;;14.63;12.70;;;;;;;;;;4874128;28;20228;-80
2021/04/14 00:58:51;;;;;;;16.00;13.63;;;;;;;;;;4876374;28;20350;-80
2021/04/14 01:01:19;;;;;;;13.60;12.20;;;;;;;;;;4877373;28;20244;-81
2021/04/14 01:03:47;;;;;;;14.50;12.83;;;;;;;;;;4863865;28;20235;-79
2021/04/14 01:06:17;;;;;;;15.30;12.80;;;;;;;;;;4869282;28;20562;-80
2021/04/14 01:08:45;;;;;;;16.00;14.10;;;;;;;;;;4873062;28;20243;-78
2021/04/14 01:11:14;;;;;;;14.83;13.27;;;;;;;;;;4869908;28;20243;-79
2021/04/14 01:13:42;;;;;;;16.03;14.30;;;;;;;;;;4875757;28;21034;-79
2021/04/14 01:16:10;;;;;;;15.63;13.93;;;;;;;;;;4871247;28;20242;-81
2021/04/14 01:18:39;;;;;;;15.67;13.90;;;;;;;;;;4870435;28;20701;-79
2021/04/14 01:21:09;;;;;;;17.23;14.13;;;;;;;;;;4881971;28;20230;-81
2021/04/14 01:23:38;;;;;;;15.73;14.03;;;;;;;;;;4884929;28;20250;-79
2021/04/14 01:26:06;;;;;;;14.67;12.90;;;;;;;;;;4882559;28;20252;-80
2021/04/14 01:28:36;;;;;;;15.77;12.93;;;;;;;;;;4870638;28;20241;-78
2021/04/14 01:31:05;;;;;;;18.03;15.27;;;;;;;;;;4886572;28;20233;-80
2021/04/14 01:33:34;;;;;;;16.80;14.23;;;;;;;;;;4874816;28;20234;-80
2021/04/14 01:36:04;;;;;;;16.53;13.70;;;;;;;;;;4886992;28;20319;-80
2021/04/14 01:38:32;;;;;;;15.77;13.67;;;;;;;;;;4867692;28;20245;-83
2021/04/14 01:41:02;;;;;;;15.80;14.10;;;;;;;;;;4872453;28;20235;-79
2021/04/14 01:43:30;;;;;;;16.57;14.77;;;;;;;;;;4890640;28;20231;-83
2021/04/14 01:45:58;;;;;;;18.23;14.80;;;;;;;;;;4863038;28;20248;-79
2021/04/14 01:48:25;;;;;;;18.30;14.90;;;;;;;;;;4874947;28;20245;-80
2021/04/14 01:50:53;;;;;;;16.60;14.47;;;;;;;;;;4869427;28;20239;-79
2021/04/14 01:53:21;;;;;;;16.17;14.47;;;;;;;;;;4857367;28;20236;-79
2021/04/14 01:55:50;;;;;;;16.63;13.93;;;;;;;;;;4872875;28;20227;-79
2021/04/14 01:58:19;;;;;;;17.67;14.67;;;;;;;;;;4856638;28;20234;-78
2021/04/14 02:00:51;;;;;;;17.83;15.13;;;;;;;;;;4861851;28;20246;-80
2021/04/14 02:03:19;;;;;;;17.67;15.20;;;;;;;;;;4878495;28;20227;-79
2021/04/14 02:05:46;;;;;;;18.50;16.27;;;;;;;;;;4875950;28;20257;-82
2021/04/14 02:08:14;;;;;;;17.90;15.13;;;;;;;;;;4873810;28;20226;-79
2021/04/14 02:10:42;;;;;;;17.97;15.50;;;;;;;;;;4875322;28;20245;-80
2021/04/14 02:13:12;;;;;;;16.63;14.83;;;;;;;;;;4871878;28;20223;-78
2021/04/14 02:15:41;;;;;;;20.33;16.13;;;;;;;;;;4871654;28;20238;-78
2021/04/14 02:18:08;;;;;;;18.53;16.47;;;;;;;;;;4871961;28;21070;-79
2021/04/14 02:20:36;;;;;;;21.10;16.87;;;;;;;;;;4868770;28;20238;-79
2021/04/14 02:23:15;;;;;;;17.33;15.23;;;;;;;;;;4850271;28;20239;-79
2021/04/14 02:25:43;;;;;;;16.97;15.17;;;;;;;;;;4870795;28;20233;-80
2021/04/14 02:28:11;;;;;;;20.10;17.57;;;;;;;;;;4870160;28;20237;-79
2021/04/14 02:30:38;;;;;;;18.27;16.27;;;;;;;;;;4887005;28;20722;-78
2021/04/14 02:33:08;;;;;;;19.60;16.43;;;;;;;;;;4903481;28;20258;-78
2021/04/14 02:35:36;;;;;;;20.80;16.60;;;;;;;;;;4872990;28;20234;-79
2021/04/14 02:38:04;;;;;;;18.87;16.73;;;;;;;;;;4872242;28;20241;-79
2021/04/14 02:40:32;;;;;;;19.40;17.27;;;;;;;;;;4876746;28;20238;-78
2021/04/14 02:43:00;;;;;;;20.50;16.67;;;;;;;;;;4869266;28;20330;-78
2021/04/14 02:45:30;;;;;;;20.97;17.83;;;;;;;;;;4872710;28;20246;-80
2021/04/14 02:47:59;;;;;;;21.90;17.70;;;;;;;;;;4871567;28;20724;-79
2021/04/14 02:50:30;;;;;;;20.10;17.70;;;;;;;;;;4849192;29;20719;-82
2021/04/14 02:52:58;;;;;;;18.63;16.63;;;;;;;;;;4865421;28;20238;-79
2021/04/14 02:55:28;;;;;;;19.70;17.37;;;;;;;;;;4870011;28;20248;-78
2021/04/14 02:57:56;;;;;;;20.30;17.57;;;;;;;;;;4867168;28;20234;-79
2021/04/14 03:00:26;;;;;;;20.10;17.73;;;;;;;;;;4867465;28;20245;-81
2021/04/14 03:02:54;;;;;;;23.47;19.03;;;;;;;;;;4867590;28;20230;-80
2021/04/14 03:05:24;;;;;;;21.73;18.33;;;;;;;;;;4869907;28;20244;-79
2021/04/14 03:07:53;;;;;;;25.33;19.70;;;;;;;;;;4874201;28;20257;-80
2021/04/14 03:10:21;;;;;;;23.13;20.20;;;;;;;;;;4871851;28;20233;-81
2021/04/14 03:12:49;;;;;;;24.40;18.93;;;;;;;;;;4869419;28;20231;-77
2021/04/14 03:15:20;;;;;;;24.60;19.33;;;;;;;;;;4874790;29;20214;-80
2021/04/14 03:17:48;;;;;;;23.20;19.60;;;;;;;;;;4883815;28;20232;-78
2021/04/14 03:20:16;;;;;;;22.57;18.63;;;;;;;;;;4883779;28;20243;-79
2021/04/14 03:22:44;;;;;;;21.70;18.73;;;;;;;;;;4888589;28;20275;-78
2021/04/14 03:25:13;;;;;;;23.67;19.80;;;;;;;;;;4886322;28;20217;-80
2021/04/14 03:27:41;;;;;;;22.60;19.53;;;;;;;;;;4869851;28;20244;-79
2021/04/14 03:30:10;;;;;;;23.40;18.97;;;;;;;;;;4867186;28;20652;-79
2021/04/14 03:32:37;;;;;;;23.73;19.60;;;;;;;;;;4853475;28;20233;-78
2021/04/14 03:35:07;;;;;;;22.93;19.07;;;;;;;;;;4872247;28;20723;-79
2021/04/14 03:37:34;;;;;;;24.17;19.67;;;;;;;;;;4854840;29;20226;-80
2021/04/14 03:40:04;;;;;;;22.93;19.67;;;;;;;;;;4871621;28;20249;-80
2021/04/14 03:42:32;;;;;;;24.73;20.47;;;;;;;;;;4874680;28;20246;-81
2021/04/14 03:45:01;;;;;;;21.27;18.60;;;;;;;;;;4867367;28;20607;-78
2021/04/14 03:47:30;;;;;;;26.43;20.43;;;;;;;;;;4870052;28;20234;-81
2021/04/14 03:49:57;;;;;;;22.97;19.97;;;;;;;;;;4856502;28;20338;-80
2021/04/14 03:52:25;;;;;;;24.10;19.77;;;;;;;;;;4871725;28;20226;-79
2021/04/14 03:54:52;;;;;;;24.40;19.57;;;;;;;;;;4868590;28;20249;-79
2021/04/14 03:57:20;;;;;;;24.90;20.77;;;;;;;;;;4881427;28;20241;-77
2021/04/14 03:59:48;;;;;;;25.10;20.80;;;;;;;;;;4872593;28;20252;-82
2021/04/14 04:02:23;;;;;;;23.30;19.53;;;;;;;;;;4884916;28;20580;-79
2021/04/14 04:04:51;;;;;;;23.87;20.07;;;;;;;;;;4878808;28;20261;-79
2021/04/14 04:07:20;;;;;;;25.83;20.23;;;;;;;;;;4885722;28;20218;-79
2021/04/14 04:09:48;;;;;;;25.00;21.23;;;;;;;;;;4886868;28;20232;-81
2021/04/14 04:12:15;;;;;;;26.97;20.30;;;;;;;;;;4910854;28;20219;-79
2021/04/14 04:14:47;;;;;;;24.30;20.17;;;;;;;;;;4894891;28;20226;-82
2021/04/14 04:17:17;;;;;;;26.93;21.13;;;;;;;;;;4891841;28;20233;-80
2021/04/14 04:19:45;;;;;;;28.50;23.07;;;;;;;;;;4884399;28;20233;-80
2021/04/14 04:22:14;;;;;;;27.47;20.93;;;;;;;;;;4875857;28;20229;-80
2021/04/14 04:24:41;;;;;;;27.17;22.13;;;;;;;;;;4884430;28;20233;-78
2021/04/14 04:27:09;;;;;;;26.97;22.77;;;;;;;;;;4891110;28;20225;-79
2021/04/14 04:29:37;;;;;;;26.87;22.53;;;;;;;;;;4863750;28;20242;-79
2021/04/14 04:32:05;;;;;;;30.07;22.07;;;;;;;;;;4870563;28;21042;-79
2021/04/14 04:34:34;;;;;;;26.47;21.23;;;;;;;;;;4870383;28;20237;-81
2021/04/14 04:37:02;;;;;;;29.23;23.27;;;;;;;;;;4884315;28;20233;-80
2021/04/14 04:39:29;;;;;;;31.63;22.40;;;;;;;;;;4874476;28;20233;-80
2021/04/14 04:41:57;;;;;;;26.70;21.87;;;;;;;;;;4873671;28;20243;-81
2021/04/14 04:44:25;;;;;;;27.07;21.20;;;;;;;;;;4853152;28;20239;-80
2021/04/14 04:46:52;;;;;;;30.87;23.53;;;;;;;;;;4876742;28;20399;-80
2021/04/14 04:49:20;;;;;;;29.20;23.50;;;;;;;;;;4864394;28;20596;-80
2021/04/14 04:51:48;;;;;;;27.37;22.23;;;;;;;;;;4874759;28;20227;-79
2021/04/14 04:54:16;;;;;;;29.00;22.57;;;;;;;;;;4875866;28;20619;-80
2021/04/14 04:56:43;;;;;;;31.57;23.80;;;;;;;;;;4878348;28;20233;-81
2021/04/14 04:59:11;;;;;;;31.43;24.77;;;;;;;;;;4874251;28;20612;-81
2021/04/14 05:01:40;;;;;;;29.23;22.83;;;;;;;;;;4874961;28;20229;-81
2021/04/14 05:04:08;;;;;;;30.20;23.43;;;;;;;;;;4873639;28;20234;-78
2021/04/14 05:06:36;;;;;;;31.90;24.80;;;;;;;;;;4871387;28;20238;-79
2021/04/14 05:09:05;;;;;;;30.47;24.07;;;;;;;;;;4881408;28;20241;-80
2021/04/14 05:11:33;;;;;;;31.40;24.27;;;;;;;;;;4871357;28;20229;-79
2021/04/14 05:14:00;;;;;;;31.93;24.80;;;;;;;;;;4867556;28;20602;-80
2021/04/14 05:16:28;;;;;;;28.83;22.90;;;;;;;;;;4868291;28;20238;-79
2021/04/14 05:19:01;;;;;;;30.47;24.47;;;;;;;;;;4866728;28;20270;-80
2021/04/14 05:21:29;;;;;;;32.37;24.60;;;;;;;;;;4868878;28;20238;-79
2021/04/14 05:23:56;;;;;;;31.70;23.63;;;;;;;;;;4875997;28;20254;-79
2021/04/14 05:26:27;;;;;;;29.10;23.37;;;;;;;;;;4870653;28;20230;-80
2021/04/14 05:29:03;;;;;;;28.70;24.03;;;;;;;;;;4868840;28;20236;-80
2021/04/14 05:31:31;;;;;;;29.03;24.50;;;;;;;;;;4867948;28;20240;-81
2021/04/14 05:33:59;;;;;;;32.10;23.67;;;;;;;;;;4887039;28;20226;-80
2021/04/14 05:36:28;;;;;;;30.73;22.60;;;;;;;;;;4860815;28;20229;-78
2021/04/14 05:38:55;;;;;;;30.50;23.27;;;;;;;;;;4849520;28;20248;-82
2021/04/14 05:41:24;;;;;;;32.90;25.00;;;;;;;;;;4865310;28;20239;-84
2021/04/14 05:43:52;;;;;;;29.93;22.40;;;;;;;;;;4865362;28;20236;-81
2021/04/14 05:46:22;;;;;;;29.57;22.67;;;;;;;;;;4861805;28;20228;-82
2021/04/14 05:48:51;;;;;;;29.00;22.13;;;;;;;;;;4864596;28;20734;-79
2021/04/14 05:51:21;;;;;;;30.17;23.07;;;;;;;;;;4846849;29;20247;-81
2021/04/14 05:53:50;;;;;;;32.97;23.33;;;;;;;;;;4868624;28;20227;-80
2021/04/14 05:56:19;;;;;;;28.93;22.23;;;;;;;;;;4869456;28;20238;-78
2021/04/14 05:58:57;;;;;;;28.87;22.20;;;;;;;;;;4876869;28;20235;-81
2021/04/14 06:01:27;;;;;;;28.83;22.47;;;;;;;;;;4857749;29;20244;-80
2021/04/14 06:04:06;;;;;;;28.87;20.73;;;;;;;;;;4846692;28;20233;-85
2021/04/14 06:06:39;;;;;;;28.43;22.07;;;;;;;;;;4864295;28;20522;-80
2021/04/14 06:09:08;;;;;;;27.43;21.17;;;;;;;;;;4864151;28;20247;-80
2021/04/14 06:11:37;;;;;;;26.57;20.47;;;;;;;;;;4866853;28;20236;-80
2021/04/14 06:14:11;;;;;;;28.80;21.03;;;;;;;;;;4866734;28;20228;-80
2021/04/14 06:16:39;;;;;;;28.73;21.60;;;;;;;;;;4882110;28;20217;-78
2021/04/14 06:19:08;;;;;;;26.63;20.87;;;;;;;;;;4889294;28;20224;-83
2021/04/14 06:21:35;;;;;;;27.00;20.37;;;;;;;;;;4856674;29;20355;-81
2021/04/14 06:24:04;;;;;;;29.03;22.07;;;;;;;;;;4879134;28;20245;-81
2021/04/14 06:26:38;;;;;;;25.47;20.73;;;;;;;;;;4876538;28;20232;-81
2021/04/14 06:29:06;;;;;;;33.53;21.20;;;;;;;;;;4883031;28;20232;-81
2021/04/14 06:31:40;;;;;;;25.27;21.13;;;;;;;;;;4862731;29;20235;-82
2021/04/14 06:34:14;;;;;;;103.70;26.57;;;;;;;;;;4862937;28;20227;-81
2021/04/14 06:36:44;;;;;;;26.77;22.20;;;;;;;;;;4879037;28;20239;-82
2021/04/14 06:39:21;;;;;;;106.50;28.37;;;;;;;;;;4863255;28;20245;-82
2021/04/14 06:42:07;;;;;;;27.77;21.37;;;;;;;;;;4870532;28;20228;-87
2021/04/14 06:44:46;;;;;;;23.67;19.07;;;;;;;;;;4901814;28;20242;-82
2021/04/14 06:47:19;;;;;;;29.93;20.93;;;;;;;;;;4889660;28;20240;-83
2021/04/14 06:49:50;;;;;;;27.87;20.00;;;;;;;;;;4873498;28;20247;-85
2021/04/14 06:52:28;;;;;;;26.97;18.97;;;;;;;;;;4875191;28;20239;-85
2021/04/14 06:55:00;;;;;;;22.27;17.80;;;;;;;;;;4874947;28;20225;-85
2021/04/14 06:57:30;;;;;;;24.13;18.70;;;;;;;;;;4872863;28;20240;-86
2021/04/14 07:00:02;;;;;;;24.10;18.90;;;;;;;;;;4868449;28;20233;-81
2021/04/14 07:02:34;;;;;;;21.37;17.20;;;;;;;;;;4870143;28;20245;-83
2021/04/14 07:05:05;;;;;;;20.57;17.37;;;;;;;;;;4857185;28;20247;-81
2021/04/14 07:07:37;;;;;;;21.57;16.13;;;;;;;;;;4857838;29;20243;-83
2021/04/14 07:10:10;;;;;;;21.47;15.30;;;;;;;;;;4870997;28;22988;-83
2021/04/14 07:12:38;;;;;;;21.60;16.10;;;;;;;;;;4879202;28;20241;-81
2021/04/14 07:15:07;;;;;;;19.60;15.40;;;;;;;;;;4857760;28;20594;-82
2021/04/14 07:17:53;;;;;;;20.33;15.60;;;;;;;;;;4869942;28;20229;-83
2021/04/14 07:20:27;;;;;;;19.93;15.03;;;;;;;;;;4885806;28;20256;-85
2021/04/14 07:23:05;;;;;;;17.20;12.20;;;;;;;;;;4871975;28;20217;-83
2021/04/14 07:25:39;;;;;;;15.97;11.67;;;;;;;;;;4871092;28;20614;-84
2021/04/14 07:28:25;;;;;;;17.30;11.63;;;;;;;;;;4870105;28;20229;-84
2021/04/14 07:31:01;;;;;;;16.53;11.17;;;;;;;;;;4866875;28;20237;-83
2021/04/14 07:33:41;;;;;;;15.40;10.60;;;;;;;;;;4870280;28;20233;-82
2021/04/14 07:36:15;;;;;;;16.37;10.83;;;;;;;;;;4876634;28;20237;-83
2021/04/14 07:38:49;;;;;;;16.87;11.03;;;;;;;;;;4891511;28;20233;-85
2021/04/14 07:41:38;;;;;;;15.20;10.47;;;;;;;;;;4941804;28;20226;-85
2021/04/14 07:44:09;;;;;;;16.87;11.93;;;;;;;;;;4857458;29;20243;-81
2021/04/14 07:46:55;;;;;;;14.03;9.70;;;;;;;;;;4880739;28;20685;-83
2021/04/14 07:49:25;;;;;;;12.53;9.07;;;;;;;;;;4873765;28;20229;-84
2021/04/14 07:51:53;;;;;;;11.53;9.20;;;;;;;;;;4867564;28;20758;-85
2021/04/14 07:54:23;;;;;;;14.43;8.93;;;;;;;;;;4870454;28;20234;-81
2021/04/14 07:56:52;;;;;;;11.80;8.60;;;;;;;;;;4890461;28;20234;-84
2021/04/14 07:59:27;;;;;;;12.17;9.13;;;;;;;;;;4862008;28;20249;-83
2021/04/14 08:01:57;;;;;;;11.27;8.20;;;;;;;;;;4865420;28;20320;-84
2021/04/14 08:04:28;;;;;;;11.53;8.53;;;;;;;;;;4868193;28;20537;-82
2021/04/14 08:07:07;;;;;;;14.93;8.50;;;;;;;;;;4882662;28;20246;-81
2021/04/14 08:09:47;;;;;;;11.83;7.87;;;;;;;;;;4886837;28;20226;-85
2021/04/14 08:12:24;;;;;;;12.13;7.47;;;;;;;;;;4868128;28;20232;-81
2021/04/14 08:14:52;;;;;;;11.00;7.87;;;;;;;;;;4890310;28;20230;-84
2021/04/14 08:17:24;;;;;;;8.43;6.33;;;;;;;;;;4911070;28;20234;-81
2021/04/14 08:19:59;;;;;;;8.33;6.40;;;;;;;;;;4856053;28;20229;-85
2021/04/14 08:22:27;;;;;;;9.17;7.20;;;;;;;;;;4854030;29;20573;-82
2021/04/14 08:24:59;;;;;;;8.57;6.60;;;;;;;;;;4872601;28;20756;-82
2021/04/14 08:27:36;;;;;;;9.17;7.47;;;;;;;;;;4858351;29;20246;-82
2021/04/14 08:30:12;;;;;;;11.63;7.90;;;;;;;;;;4886071;28;20256;-84
2021/04/14 08:32:44;;;;;;;9.57;7.27;;;;;;;;;;4884392;28;20237;-82
2021/04/14 08:35:16;;;;;;;8.80;6.83;;;;;;;;;;4874628;28;20233;-86
2021/04/14 08:37:44;;;;;;;9.17;7.00;;;;;;;;;;4867955;28;20241;-84
2021/04/14 08:40:19;;;;;;;11.33;6.13;;;;;;;;;;4882300;28;20735;-84
2021/04/14 08:42:47;;;;;;;9.23;6.40;;;;;;;;;;4865758;28;20610;-83
2021/04/14 08:45:21;;;;;;;8.23;6.47;;;;;;;;;;4874430;29;20239;-82
2021/04/14 08:47:58;;;;;;;9.10;6.60;;;;;;;;;;4869508;28;20230;-82
2021/04/14 08:50:28;;;;;;;8.07;5.97;;;;;;;;;;4871734;28;20253;-83
2021/04/14 08:52:58;;;;;;;8.43;6.83;;;;;;;;;;4867407;28;20246;-81
2021/04/14 08:55:27;;;;;;;8.00;5.40;;;;;;;;;;4872934;28;20236;-80
2021/04/14 08:57:58;;;;;;;9.93;5.57;;;;;;;;;;4872765;28;20237;-81
2021/04/14 09:00:27;;;;;;;6.43;5.40;;;;;;;;;;4878930;28;20231;-81
2021/04/14 09:03:00;;;;;;;9.43;6.40;;;;;;;;;;4876922;28;20220;-79
2021/04/14 09:05:28;;;;;;;7.47;5.73;;;;;;;;;;4880976;29;20216;-81
2021/04/14 09:07:57;;;;;;;7.07;5.20;;;;;;;;;;4871081;28;20231;-83
2021/04/14 09:10:38;;;;;;;6.13;5.53;;;;;;;;;;4895148;29;20224;-80
2021/04/14 09:13:07;;;;;;;7.53;5.77;;;;;;;;;;4902958;28;20250;-85
2021/04/14 09:15:53;;;;;;;6.43;5.53;;;;;;;;;;4858959;28;20237;-84
2021/04/14 09:18:27;;;;;;;6.30;5.47;;;;;;;;;;4884384;28;20229;-82
2021/04/14 09:21:08;;;;;;;7.03;5.47;;;;;;;;;;4852224;28;20231;-84
2021/04/14 09:23:37;;;;;;;8.77;5.00;;;;;;;;;;4882068;28;20605;-85
2021/04/14 09:26:14;;;;;;;5.93;4.57;;;;;;;;;;4874907;28;20230;-83
2021/04/14 09:28:47;;;;;;;4.73;4.23;;;;;;;;;;4875724;28;20244;-86
2021/04/14 09:31:16;;;;;;;5.57;4.60;;;;;;;;;;4873413;28;20237;-85
2021/04/14 09:33:46;;;;;;;7.10;5.23;;;;;;;;;;4885341;28;20248;-85
2021/04/14 09:36:29;;;;;;;6.40;4.47;;;;;;;;;;4870622;28;20226;-83
2021/04/14 09:39:07;;;;;;;5.77;4.77;;;;;;;;;;4869894;28;20237;-85
2021/04/14 09:41:37;;;;;;;6.17;4.30;;;;;;;;;;4873032;28;20222;-83
2021/04/14 09:44:31;;;;;;;6.53;4.47;;;;;;;;;;4879359;28;20225;-84
2021/04/14 09:47:14;;;;;;;4.93;3.80;;;;;;;;;;4871169;28;20229;-85
2021/04/14 09:49:43;;;;;;;5.73;3.97;;;;;;;;;;4860782;29;20237;-83
2021/04/14 09:52:26;;;;;;;6.13;4.03;;;;;;;;;;4869709;29;20241;-81
2021/04/14 09:54:56;;;;;;;5.97;4.53;;;;;;;;;;4862200;28;20229;-83
2021/04/14 09:57:31;;;;;;;5.27;3.53;;;;;;;;;;4889431;28;20229;-85
2021/04/14 09:59:59;;;;;;;5.07;3.90;;;;;;;;;;4869739;28;20237;-85
2021/04/14 10:02:29;;;;;;;5.83;3.90;;;;;;;;;;4875238;28;20222;-83
2021/04/14 10:05:00;;;;;;;4.50;3.33;;;;;;;;;;4866113;28;20696;-83
2021/04/14 10:07:31;;;;;;;5.20;3.87;;;;;;;;;;4871388;28;20222;-85
2021/04/14 10:10:07;;;;;;;3.53;3.23;;;;;;;;;;4855348;29;20746;-85
2021/04/14 10:12:36;;;;;;;4.50;3.40;;;;;;;;;;4859198;29;20244;-85
2021/04/14 10:15:06;;;;;;;4.23;2.93;;;;;;;;;;4869294;28;20236;-86
2021/04/14 10:17:35;;;;;;;4.30;3.83;;;;;;;;;;4871935;28;20420;-85
2021/04/14 10:20:11;;;;;;;5.50;3.73;;;;;;;;;;4886045;28;20253;-85
2021/04/14 10:22:43;;;;;;;4.27;3.87;;;;;;;;;;4873125;29;20234;-86
2021/04/14 10:25:19;;;;;;;5.13;3.70;;;;;;;;;;4866105;29;20612;-85
2021/04/14 10:27:48;;;;;;;4.60;4.17;;;;;;;;;;4869107;28;20233;-83
2021/04/14 10:30:20;;;;;;;4.37;3.80;;;;;;;;;;4876562;28;20230;-84
2021/04/14 10:32:49;;;;;;;3.53;2.97;;;;;;;;;;4865290;28;20229;-83
2021/04/14 10:35:20;;;;;;;4.40;3.77;;;;;;;;;;4878577;28;20233;-84
2021/04/14 10:37:50;;;;;;;5.17;4.20;;;;;;;;;;4860279;28;20660;-82
2021/04/14 10:40:20;;;;;;;3.67;3.37;;;;;;;;;;4876586;28;20696;-81
2021/04/14 10:42:49;;;;;;;4.90;3.47;;;;;;;;;;4886822;28;20644;-79
2021/04/14 10:45:19;;;;;;;4.43;3.93;;;;;;;;;;4879266;29;20236;-78
2021/04/14 10:47:48;;;;;;;4.43;3.93;;;;;;;;;;4894935;28;20221;-84
2021/04/14 10:50:19;;;;;;;4.30;3.90;;;;;;;;;;4884508;28;20234;-79
2021/04/14 10:52:52;;;;;;;3.90;3.57;;;;;;;;;;4896996;28;20244;-83
2021/04/14 10:55:21;;;;;;;4.10;3.70;;;;;;;;;;4900313;28;20222;-81
2021/04/14 10:57:56;;;;;;;4.00;3.50;;;;;;;;;;4915898;28;20237;-80
2021/04/14 11:00:30;;;;;;;3.63;3.30;;;;;;;;;;4866357;28;20248;-82
2021/04/14 11:03:01;;;;;;;4.33;3.67;;;;;;;;;;4859521;28;20225;-82
2021/04/14 11:05:29;;;;;;;3.30;3.00;;;;;;;;;;4886082;28;20230;-82
2021/04/14 11:07:58;;;;;;;4.13;3.30;;;;;;;;;;4873486;28;20230;-82
2021/04/14 11:10:28;;;;;;;3.43;3.13;;;;;;;;;;4869229;28;20603;-79
2021/04/14 11:12:56;;;;;;;4.07;3.67;;;;;;;;;;4880704;28;20716;-80
2021/04/14 11:15:27;;;;;;;4.93;3.57;;;;;;;;;;4856678;28;20222;-81
2021/04/14 11:17:57;;;;;;;3.80;3.50;;;;;;;;;;4849633;29;20335;-85
2021/04/14 11:20:37;;;;;;;5.43;3.27;;;;;;;;;;4844230;28;20237;-84
2021/04/14 11:23:20;;;;;;;3.03;2.73;;;;;;;;;;4863215;28;20233;-86
2021/04/14 11:25:47;;;;;;;2.97;2.70;;;;;;;;;;4847965;28;20604;-86
2021/04/14 11:28:17;;;;;;;8.07;3.33;;;;;;;;;;4842878;29;20229;-86
2021/04/14 11:30:48;;;;;;;3.37;3.07;;;;;;;;;;4862824;28;20237;-83
2021/04/14 11:33:17;;;;;;;3.80;3.20;;;;;;;;;;4865720;28;20225;-85
2021/04/14 11:35:48;;;;;;;3.23;2.80;;;;;;;;;;4853312;29;20229;-82
2021/04/14 11:38:31;;;;;;;3.20;2.70;;;;;;;;;;4877439;28;20229;-86
2021/04/14 11:40:59;;;;;;;3.47;2.88;;;;;;;;;;4847177;28;20250;-85
2021/04/14 11:43:32;;;;;;;4.40;3.03;;;;;;;;;;4869645;29;20223;-85
2021/04/14 11:46:03;;;;;;;2.75;2.20;;;;;;;;;;4863069;28;20240;-83
2021/04/14 11:48:35;;;;;;;3.47;2.90;;;;;;;;;;4873188;28;20233;-85
2021/04/14 11:51:17;;;;;;;5.57;3.63;;;;;;;;;;4841188;28;20241;-82
2021/04/14 11:53:54;;;;;;;4.10;3.03;;;;;;;;;;4857577;28;20237;-82
2021/04/14 11:56:25;;;;;;;3.90;2.63;;;;;;;;;;4845415;29;20225;-83
2021/04/14 11:58:54;;;;;;;3.35;2.42;;;;;;;;;;4888281;28;20242;-83
2021/04/14 12:01:24;;;;;;;2.60;2.40;;;;;;;;;;4890178;28;20257;-82
2021/04/14 12:03:51;;;;;;;2.60;2.40;;;;;;;;;;4870670;29;20213;-81
2021/04/14 12:06:20;;;;;;;3.95;3.10;;;;;;;;;;4881357;28;20245;-84
2021/04/14 12:08:48;;;;;;;2.50;2.30;;;;;;;;;;4859844;28;20240;-82
2021/04/14 12:11:18;;;;;;;3.22;2.45;;;;;;;;;;4868776;28;21346;-81
2021/04/14 12:13:47;;;;;;;4.78;3.08;;;;;;;;;;4858710;28;20238;-84
2021/04/14 12:16:15;;;;;;;5.22;3.90;;;;;;;;;;4877209;28;20244;-85
2021/04/14 12:18:43;;;;;;;4.22;3.83;;;;;;;;;;4873327;28;20238;-85
2021/04/14 12:21:18;;;;;;;2.60;2.25;;;;;;;;;;4845844;29;20240;-86
2021/04/14 12:23:47;;;;;;;2.83;2.20;;;;;;;;;;4850880;28;20241;-85
2021/04/14 12:26:28;;;;;;;2.78;2.20;;;;;;;;;;4855380;29;20229;-79
2021/04/14 12:28:55;;;;;;;4.28;2.85;;;;;;;;;;4873743;28;20237;-82
2021/04/14 12:31:31;;;;;;;2.83;2.63;;;;;;;;;;4867728;28;20251;-85
2021/04/14 12:34:00;;;;;;;3.05;1.73;;;;;;;;;;4864799;28;20244;-82
2021/04/14 12:36:28;;;;;;;2.37;2.00;;;;;;;;;;4864258;28;20238;-82
2021/04/14 12:38:56;;;;;;;2.70;2.33;;;;;;;;;;4853999;28;20253;-83
2021/04/14 12:41:23;;;;;;;2.30;1.90;;;;;;;;;;4862889;28;20237;-85
2021/04/14 12:43:53;;;;;;;2.33;2.13;;;;;;;;;;4865458;28;20707;-82
2021/04/14 12:46:21;;;;;;;1.97;1.80;;;;;;;;;;4872792;28;20797;-84
2021/04/14 12:48:50;;;;;;;3.00;2.00;;;;;;;;;;4878773;28;20233;-85
2021/04/14 12:51:28;;;;;;;2.87;2.20;;;;;;;;;;4870486;28;20249;-84
2021/04/14 12:54:06;;;;;;;2.97;2.60;;;;;;;;;;4849350;28;20233;-84
2021/04/14 12:56:35;;;;;;;2.80;2.50;;;;;;;;;;4874730;28;20707;-82
2021/04/14 12:59:15;;;;;;;3.67;2.50;;;;;;;;;;4876737;28;20714;-81
2021/04/14 13:01:44;;;;;;;3.05;2.72;;;;;;;;;;4871062;28;20240;-81
2021/04/14 13:04:17;;;;;;;2.97;2.08;;;;;;;;;;4877657;28;20225;-80
2021/04/14 13:06:47;;;;;;;7.00;2.40;;;;;;;;;;4865913;28;20614;-80
2021/04/14 13:09:15;;;;;;;4.50;1.90;;;;;;;;;;4872426;28;20256;-82
2021/04/14 13:12:02;;;;;;;10.90;7.43;;;;;;;;;;4873786;28;20241;-81
2021/04/14 13:14:32;;;;;;;8.38;5.85;;;;;;;;;;4867879;28;20229;-81
2021/04/14 13:17:03;;;;;;;3.87;2.43;;;;;;;;;;4854124;28;20230;-82
2021/04/14 13:19:40;;;;;;;2.37;2.00;;;;;;;;;;4869236;28;20238;-82
2021/04/14 13:22:19;;;;;;;4.93;3.30;;;;;;;;;;4945972;28;20832;-85
2021/04/14 13:24:51;;;;;;;2.77;2.17;;;;;;;;;;4854679;28;20237;-82
2021/04/14 13:27:24;;;;;;;5.87;2.57;;;;;;;;;;4883603;28;20296;-85
2021/04/14 13:30:01;;;;;;;4.40;2.33;;;;;;;;;;4890344;28;20237;-87
2021/04/14 13:32:32;;;;;;;4.40;2.70;;;;;;;;;;4873233;28;20252;-84
2021/04/14 13:35:04;;;;;;;6.67;3.50;;;;;;;;;;4862549;28;20217;-82
2021/04/14 13:37:41;;;;;;;6.23;3.63;;;;;;;;;;4866547;28;20240;-85
2021/04/14 13:40:15;;;;;;;4.73;3.70;;;;;;;;;;4871022;28;20226;-88
2021/04/14 13:42:45;;;;;;;3.17;2.23;;;;;;;;;;4879769;28;20470;-85
2021/04/14 13:45:18;;;;;;;4.37;2.27;;;;;;;;;;4884097;28;20241;-85
2021/04/14 13:47:50;;;;;;;6.53;3.30;;;;;;;;;;4867172;28;20266;-85
2021/04/14 13:50:20;;;;;;;2.97;2.67;;;;;;;;;;4865594;29;20233;-82
2021/04/14 13:52:52;;;;;;;4.83;2.60;;;;;;;;;;4853820;28;20233;-81
2021/04/14 13:55:21;;;;;;;2.78;2.45;;;;;;;;;;4871489;28;20241;-82
2021/04/14 13:57:55;;;;;;;4.25;3.53;;;;;;;;;;4877568;28;20226;-82
2021/04/14 14:00:27;;;;;;;4.23;2.90;;;;;;;;;;4871154;29;20226;-84
2021/04/14 14:03:00;;;;;;;2.67;1.80;;;;;;;;;;4874669;28;20232;-84
2021/04/14 14:05:30;;;;;;;3.53;2.90;;;;;;;;;;4879790;28;20230;-81
2021/04/14 14:08:06;;;;;;;3.77;3.03;;;;;;;;;;4875764;28;20233;-81
2021/04/14 14:10:36;;;;;;;3.53;2.57;;;;;;;;;;4872682;28;20233;-80
2021/04/14 14:13:06;;;;;;;5.13;2.87;;;;;;;;;;4901270;28;20234;-83
2021/04/14 14:15:38;;;;;;;3.73;2.60;;;;;;;;;;4857915;29;20222;-85
2021/04/14 14:18:11;;;;;;;4.30;2.67;;;;;;;;;;4852278;28;20598;-84
2021/04/14 14:20:39;;;;;;;2.70;2.50;;;;;;;;;;4880971;28;20241;-83
2021/04/14 14:23:10;;;;;;;3.50;2.13;;;;;;;;;;4887170;28;20226;-83
2021/04/14 14:25:37;;;;;;;5.03;2.70;;;;;;;;;;4885807;28;20238;-81
2021/04/14 14:28:05;;;;;;;3.73;2.50;;;;;;;;;;4906329;28;22514;-82
2021/04/14 14:30:33;;;;;;;2.87;2.13;;;;;;;;;;4883125;28;20232;-82
2021/04/14 14:33:03;;;;;;;3.90;2.43;;;;;;;;;;4895877;28;20209;-84
2021/04/14 14:35:31;;;;;;;4.33;2.70;;;;;;;;;;4894176;28;20229;-86
2021/04/14 14:38:08;;;;;;;3.37;2.13;;;;;;;;;;4873551;28;20232;-85
2021/04/14 14:40:36;;;;;;;2.30;2.00;;;;;;;;;;4861498;29;21010;-83
2021/04/14 14:43:08;;;;;;;4.00;2.20;;;;;;;;;;4871000;28;20236;-85
2021/04/14 14:45:38;;;;;;;2.77;2.03;;;;;;;;;;4858906;29;20225;-85
2021/04/14 14:48:12;;;;;;;3.80;2.10;;;;;;;;;;4873804;28;20240;-86
2021/04/14 14:50:41;;;;;;;2.53;2.10;;;;;;;;;;4875082;28;20241;-86